Time,TemperatureF,DewpointF,PressureIn,WindDirection,WindDirectionDegrees,WindSpeedMPH,WindSpeedGustMPH,Humidity,HourlyPrecipIn,Conditions,Clouds,dailyrainin,SolarRadiationWatts/m^2,SoftwareType,DateUTC
2013-01-08 00:04:00,31.0,27.0,29.54,WNW,299,1.0,4.0,84,0.00,,,0.00,0.000000,,2013-01-08 05:04:00,
2013-01-08 00:10:00,29.0,26.0,29.54,NW,321,2.0,4.0,89,0.00,,,0.00,0.000000,,2013-01-08 05:10:00,
2013-01-08 00:33:00,29.0,26.0,29.54,NW,321,2.0,4.0,89,0.00,,,0.00,0.000000,,2013-01-08 05:33:00,
2013-01-08 00:43:00,29.0,26.0,29.54,NW,321,2.0,4.0,89,0.00,,,0.00,0.000000,,2013-01-08 05:43:00,
2013-01-08 00:53:00,29.0,26.0,29.54,NW,321,2.0,4.0,89,0.00,,,0.00,0.000000,,2013-01-08 05:53:00,
2013-01-08 01:03:00,29.0,26.0,29.54,NW,321,2.0,4.0,89,0.00,,,0.00,0.000000,,2013-01-08 06:03:00,
2013-01-08 01:10:00,28.0,26.0,29.52,NW,307,2.0,5.0,92,0.00,,,0.00,0.000000,,2013-01-08 06:10:00,
2013-01-08 01:33:00,28.0,26.0,29.52,NW,307,2.0,5.0,92,0.00,,,0.00,0.000000,,2013-01-08 06:33:00,
2013-01-08 01:43:00,28.0,26.0,29.52,NW,307,2.0,5.0,92,0.00,,,0.00,0.000000,,2013-01-08 06:43:00,
2013-01-08 01:53:00,28.0,26.0,29.52,NW,307,2.0,5.0,92,0.00,,,0.00,0.000000,,2013-01-08 06:53:00,
2013-01-08 02:02:00,28.0,26.0,29.52,NW,307,2.0,5.0,92,0.00,,,0.00,0.000000,,2013-01-08 07:02:00,
2013-01-08 02:10:00,27.0,25.0,29.53,WNW,302,2.0,3.0,92,0.00,,,0.00,0.000000,,2013-01-08 07:10:00,
2013-01-08 02:32:00,27.0,25.0,29.53,WNW,302,2.0,3.0,92,0.00,,,0.00,0.000000,,2013-01-08 07:32:00,
2013-01-08 02:42:00,27.0,25.0,29.53,WNW,302,2.0,3.0,92,0.00,,,0.00,0.000000,,2013-01-08 07:42:00,
2013-01-08 02:52:00,27.0,25.0,29.53,WNW,302,2.0,3.0,92,0.00,,,0.00,0.000000,,2013-01-08 07:52:00,
2013-01-08 03:02:00,27.0,25.0,29.53,WNW,302,2.0,3.0,92,0.00,,,0.00,0.000000,,2013-01-08 08:02:00,
2013-01-08 03:10:00,26.0,24.0,29.51,NNW,332,2.0,6.0,93,0.00,,,0.00,0.000000,,2013-01-08 08:10:00,
2013-01-08 03:42:00,26.0,24.0,29.51,NNW,332,2.0,6.0,93,0.00,,,0.00,0.000000,,2013-01-08 08:42:00,
2013-01-08 03:53:00,26.0,24.0,29.51,NNW,332,2.0,6.0,93,0.00,,,0.00,0.000000,,2013-01-08 08:53:00,
2013-01-08 04:02:00,26.0,24.0,29.51,NNW,332,2.0,6.0,93,0.00,,,0.00,0.000000,,2013-01-08 09:02:00,
2013-01-08 04:10:00,25.0,24.0,29.51,NW,307,1.0,4.0,94,0.00,,,0.00,0.000000,,2013-01-08 09:10:00,
2013-01-08 04:33:00,25.0,24.0,29.51,NW,307,1.0,4.0,94,0.00,,,0.00,0.000000,,2013-01-08 09:33:00,
2013-01-08 04:42:00,25.0,24.0,29.51,NW,307,1.0,4.0,94,0.00,,,0.00,0.000000,,2013-01-08 09:42:00,
2013-01-08 04:53:00,25.0,24.0,29.51,NW,307,1.0,4.0,94,0.00,,,0.00,0.000000,,2013-01-08 09:53:00,
2013-01-08 05:03:00,25.0,24.0,29.51,NW,307,1.0,4.0,94,0.00,,,0.00,0.000000,,2013-01-08 10:03:00,
2013-01-08 05:10:00,25.0,24.0,29.51,WNW,296,1.0,2.0,94,0.00,,,0.00,0.000000,,2013-01-08 10:10:00,
2013-01-08 05:33:00,25.0,24.0,29.51,WNW,296,1.0,2.0,94,0.00,,,0.00,0.000000,,2013-01-08 10:33:00,
2013-01-08 05:43:00,25.0,24.0,29.51,WNW,296,1.0,2.0,94,0.00,,,0.00,0.000000,,2013-01-08 10:43:00,
2013-01-08 05:53:00,25.0,24.0,29.51,WNW,296,1.0,2.0,94,0.00,,,0.00,0.000000,,2013-01-08 10:53:00,
2013-01-08 06:02:00,25.0,24.0,29.51,WNW,296,1.0,2.0,94,0.00,,,0.00,0.000000,,2013-01-08 11:02:00,
2013-01-08 06:10:00,25.0,24.0,29.53,NW,316,1.0,4.0,94,0.00,,,0.00,0.000000,,2013-01-08 11:10:00,
2013-01-08 06:33:00,25.0,24.0,29.53,NW,316,1.0,4.0,94,0.00,,,0.00,0.000000,,2013-01-08 11:33:00,
2013-01-08 06:43:00,25.0,24.0,29.53,NW,316,1.0,4.0,94,0.00,,,0.00,0.000000,,2013-01-08 11:43:00,
2013-01-08 06:53:00,25.0,24.0,29.53,NW,316,1.0,4.0,94,0.00,,,0.00,0.000000,,2013-01-08 11:53:00,
2013-01-08 07:03:00,25.0,24.0,29.53,NW,316,1.0,4.0,94,0.00,,,0.00,0.000000,,2013-01-08 12:03:00,
2013-01-08 07:10:00,24.0,23.0,29.53,NW,312,2.0,3.0,94,0.00,,,0.00,0.000000,,2013-01-08 12:10:00,
2013-01-08 07:33:00,24.0,23.0,29.53,NW,312,2.0,3.0,94,0.00,,,0.00,0.000000,,2013-01-08 12:33:00,
2013-01-08 07:43:00,24.0,23.0,29.53,NW,312,2.0,3.0,94,0.00,,,0.00,0.000000,,2013-01-08 12:43:00,
2013-01-08 07:53:00,24.0,23.0,29.53,NW,312,2.0,3.0,94,0.00,,,0.00,0.000000,,2013-01-08 12:53:00,
2013-01-08 08:03:00,24.0,23.0,29.53,NW,312,2.0,3.0,94,0.00,,,0.00,0.000000,,2013-01-08 13:03:00,
2013-01-08 08:10:00,24.0,22.0,29.55,NW,310,2.0,5.0,93,0.00,,,0.00,0.000000,,2013-01-08 13:10:00,
2013-01-08 08:33:00,24.0,22.0,29.55,NW,310,2.0,5.0,93,0.00,,,0.00,0.000000,,2013-01-08 13:33:00,
2013-01-08 08:43:00,24.0,22.0,29.55,NW,310,2.0,5.0,93,0.00,,,0.00,0.000000,,2013-01-08 13:43:00,
2013-01-08 08:53:00,24.0,22.0,29.55,NW,310,2.0,5.0,93,0.00,,,0.00,0.000000,,2013-01-08 13:53:00,
2013-01-08 09:03:00,24.0,22.0,29.55,NW,310,2.0,5.0,93,0.00,,,0.00,0.000000,,2013-01-08 14:03:00,
2013-01-08 09:10:00,31.0,27.0,29.56,North,359,1.0,4.0,86,0.00,,,0.00,5.000000,,2013-01-08 14:10:00,
2013-01-08 09:43:00,31.0,27.0,29.56,North,359,1.0,4.0,86,0.00,,,0.00,5.000000,,2013-01-08 14:43:00,
2013-01-08 09:53:00,31.0,27.0,29.56,North,359,1.0,4.0,86,0.00,,,0.00,5.000000,,2013-01-08 14:53:00,
2013-01-08 10:03:00,31.0,27.0,29.56,North,359,1.0,4.0,86,0.00,,,0.00,5.000000,,2013-01-08 15:03:00,
2013-01-08 10:10:00,37.0,31.0,29.58,NNW,333,1.0,3.0,79,0.00,,,0.00,72.000000,,2013-01-08 15:10:00,
2013-01-08 10:33:00,37.0,31.0,29.58,NNW,333,1.0,3.0,79,0.00,,,0.00,72.000000,,2013-01-08 15:33:00,
2013-01-08 10:43:00,37.0,31.0,29.58,NNW,333,1.0,3.0,79,0.00,,,0.00,72.000000,,2013-01-08 15:43:00,
2013-01-08 10:53:00,37.0,31.0,29.58,NNW,333,1.0,3.0,79,0.00,,,0.00,72.000000,,2013-01-08 15:53:00,
2013-01-08 11:03:00,37.0,31.0,29.58,NNW,333,1.0,3.0,79,0.00,,,0.00,72.000000,,2013-01-08 16:03:00,
2013-01-08 11:10:00,48.0,33.0,29.57,ENE,57,2.0,4.0,56,0.00,,,0.00,132.000000,,2013-01-08 16:10:00,
2013-01-08 11:34:00,48.0,33.0,29.57,ENE,57,2.0,4.0,56,0.00,,,0.00,132.000000,,2013-01-08 16:34:00,
2013-01-08 11:43:00,48.0,33.0,29.57,ENE,57,2.0,4.0,56,0.00,,,0.00,132.000000,,2013-01-08 16:43:00,
2013-01-08 11:53:00,48.0,33.0,29.57,ENE,57,2.0,4.0,56,0.00,,,0.00,132.000000,,2013-01-08 16:53:00,
2013-01-08 12:03:00,48.0,33.0,29.57,ENE,57,2.0,4.0,56,0.00,,,0.00,132.000000,,2013-01-08 17:03:00,
2013-01-08 12:10:00,48.0,33.0,29.54,SW,224,2.0,5.0,55,0.00,,,0.00,290.000000,,2013-01-08 17:10:00,
2013-01-08 12:43:00,48.0,33.0,29.54,SW,224,2.0,5.0,55,0.00,,,0.00,290.000000,,2013-01-08 17:43:00,
2013-01-08 12:54:00,48.0,33.0,29.54,SW,224,2.0,5.0,55,0.00,,,0.00,290.000000,,2013-01-08 17:54:00,
2013-01-08 13:04:00,48.0,33.0,29.54,SW,224,2.0,5.0,55,0.00,,,0.00,290.000000,,2013-01-08 18:04:00,
2013-01-08 13:10:00,51.0,31.0,29.52,West,269,2.0,5.0,47,0.00,,,0.00,256.000000,,2013-01-08 18:10:00,
2013-01-08 13:33:00,51.0,31.0,29.52,West,269,2.0,5.0,47,0.00,,,0.00,256.000000,,2013-01-08 18:33:00,
2013-01-08 13:43:00,51.0,31.0,29.52,West,269,2.0,5.0,47,0.00,,,0.00,256.000000,,2013-01-08 18:43:00,
2013-01-08 13:53:00,51.0,31.0,29.52,West,269,2.0,5.0,47,0.00,,,0.00,256.000000,,2013-01-08 18:53:00,
2013-01-08 14:03:00,51.0,31.0,29.52,West,269,2.0,5.0,47,0.00,,,0.00,256.000000,,2013-01-08 19:03:00,
2013-01-08 14:10:00,51.0,31.0,29.49,NE,55,3.0,7.0,47,0.00,,,0.00,248.000000,,2013-01-08 19:10:00,
2013-01-08 14:43:00,51.0,31.0,29.49,NE,55,3.0,7.0,47,0.00,,,0.00,248.000000,,2013-01-08 19:43:00,
2013-01-08 14:53:00,51.0,31.0,29.49,NE,55,3.0,7.0,47,0.00,,,0.00,248.000000,,2013-01-08 19:53:00,
2013-01-08 15:03:00,51.0,31.0,29.49,NE,55,3.0,7.0,47,0.00,,,0.00,248.000000,,2013-01-08 20:03:00,
2013-01-08 15:10:00,53.0,35.0,29.47,SE,143,2.0,8.0,51,0.00,,,0.00,299.000000,,2013-01-08 20:10:00,
2013-01-08 15:33:00,53.0,35.0,29.47,SE,143,2.0,8.0,51,0.00,,,0.00,299.000000,,2013-01-08 20:33:00,
2013-01-08 15:43:00,53.0,35.0,29.47,SE,143,2.0,8.0,51,0.00,,,0.00,299.000000,,2013-01-08 20:43:00,
2013-01-08 15:54:00,53.0,35.0,29.47,SE,143,2.0,8.0,51,0.00,,,0.00,299.000000,,2013-01-08 20:54:00,
2013-01-08 16:03:00,53.0,35.0,29.47,SE,143,2.0,8.0,51,0.00,,,0.00,299.000000,,2013-01-08 21:03:00,
2013-01-08 16:10:00,51.0,35.0,29.48,SSE,147,2.0,5.0,54,0.00,,,0.00,152.000000,,2013-01-08 21:10:00,
2013-01-08 16:43:00,51.0,35.0,29.48,SSE,147,2.0,5.0,54,0.00,,,0.00,152.000000,,2013-01-08 21:43:00,
2013-01-08 16:53:00,51.0,35.0,29.48,SSE,147,2.0,5.0,54,0.00,,,0.00,152.000000,,2013-01-08 21:53:00,
2013-01-08 17:04:00,51.0,35.0,29.48,SSE,147,2.0,5.0,54,0.00,,,0.00,152.000000,,2013-01-08 22:04:00,
2013-01-08 17:10:00,51.0,39.0,29.48,NE,38,1.0,4.0,63,0.00,,,0.00,109.000000,,2013-01-08 22:10:00,
2013-01-08 17:33:00,51.0,39.0,29.48,NE,38,1.0,4.0,63,0.00,,,0.00,109.000000,,2013-01-08 22:33:00,
2013-01-08 17:43:00,51.0,39.0,29.48,NE,38,1.0,4.0,63,0.00,,,0.00,109.000000,,2013-01-08 22:43:00,
2013-01-08 17:53:00,51.0,39.0,29.48,NE,38,1.0,4.0,63,0.00,,,0.00,109.000000,,2013-01-08 22:53:00,
2013-01-08 18:03:00,51.0,39.0,29.48,NE,38,1.0,4.0,63,0.00,,,0.00,109.000000,,2013-01-08 23:03:00,
2013-01-08 18:10:00,46.0,37.0,29.49,NNE,23,1.0,4.0,71,0.00,,,0.00,49.000000,,2013-01-08 23:10:00,
2013-01-08 18:33:00,46.0,37.0,29.49,NNE,23,1.0,4.0,71,0.00,,,0.00,49.000000,,2013-01-08 23:33:00,
2013-01-08 18:43:00,46.0,37.0,29.49,NNE,23,1.0,4.0,71,0.00,,,0.00,49.000000,,2013-01-08 23:43:00,
2013-01-08 18:53:00,46.0,37.0,29.49,NNE,23,1.0,4.0,71,0.00,,,0.00,49.000000,,2013-01-08 23:53:00,
2013-01-08 19:03:00,46.0,37.0,29.49,NNE,23,1.0,4.0,71,0.00,,,0.00,49.000000,,2013-01-09 00:03:00,
2013-01-08 19:10:00,42.0,37.0,29.50,WNW,298,1.0,4.0,81,0.00,,,0.00,13.000000,,2013-01-09 00:10:00,
2013-01-08 19:43:00,42.0,37.0,29.50,WNW,298,1.0,4.0,81,0.00,,,0.00,13.000000,,2013-01-09 00:43:00,
2013-01-08 19:53:00,42.0,37.0,29.50,WNW,298,1.0,4.0,81,0.00,,,0.00,13.000000,,2013-01-09 00:53:00,
2013-01-08 20:02:00,42.0,37.0,29.50,WNW,298,1.0,4.0,81,0.00,,,0.00,13.000000,,2013-01-09 01:02:00,
2013-01-08 20:10:00,42.0,38.0,29.51,NNW,336,2.0,6.0,84,0.00,,,0.00,0.000000,,2013-01-09 01:10:00,
2013-01-08 20:33:00,42.0,38.0,29.51,NNW,336,2.0,6.0,84,0.00,,,0.00,0.000000,,2013-01-09 01:33:00,
2013-01-08 20:43:00,42.0,38.0,29.51,NNW,336,2.0,6.0,84,0.00,,,0.00,0.000000,,2013-01-09 01:43:00,
2013-01-08 20:53:00,42.0,38.0,29.51,NNW,336,2.0,6.0,84,0.00,,,0.00,0.000000,,2013-01-09 01:53:00,
2013-01-08 21:02:00,42.0,38.0,29.51,NNW,336,2.0,6.0,84,0.00,,,0.00,0.000000,,2013-01-09 02:02:00,
2013-01-08 21:10:00,40.0,37.0,29.51,East,95,1.0,3.0,88,0.00,,,0.00,0.000000,,2013-01-09 02:10:00,
2013-01-08 21:33:00,40.0,37.0,29.51,East,95,1.0,3.0,88,0.00,,,0.00,0.000000,,2013-01-09 02:33:00,
2013-01-08 21:43:00,40.0,37.0,29.51,East,95,1.0,3.0,88,0.00,,,0.00,0.000000,,2013-01-09 02:43:00,
2013-01-08 21:53:00,40.0,37.0,29.51,East,95,1.0,3.0,88,0.00,,,0.00,0.000000,,2013-01-09 02:53:00,
2013-01-08 22:03:00,40.0,37.0,29.51,East,95,1.0,3.0,88,0.00,,,0.00,0.000000,,2013-01-09 03:03:00,
2013-01-08 22:10:00,40.0,36.0,29.52,NW,311,2.0,3.0,84,0.00,,,0.00,0.000000,,2013-01-09 03:10:00,
2013-01-08 22:33:00,40.0,36.0,29.52,NW,311,2.0,3.0,84,0.00,,,0.00,0.000000,,2013-01-09 03:33:00,
2013-01-08 22:43:00,40.0,36.0,29.52,NW,311,2.0,3.0,84,0.00,,,0.00,0.000000,,2013-01-09 03:43:00,
2013-01-08 22:53:00,40.0,36.0,29.52,NW,311,2.0,3.0,84,0.00,,,0.00,0.000000,,2013-01-09 03:53:00,
2013-01-08 23:02:00,40.0,36.0,29.52,NW,311,2.0,3.0,84,0.00,,,0.00,0.000000,,2013-01-09 04:02:00,
2013-01-08 23:10:00,43.0,38.0,29.52,NW,317,2.0,5.0,83,0.00,,,0.00,0.000000,,2013-01-09 04:10:00,
2013-01-08 23:33:00,43.0,38.0,29.52,NW,317,2.0,5.0,83,0.00,,,0.00,0.000000,,2013-01-09 04:33:00,
2013-01-08 23:43:00,43.0,38.0,29.52,NW,317,2.0,5.0,83,0.00,,,0.00,0.000000,,2013-01-09 04:43:00,
2013-01-08 23:53:00,43.0,38.0,29.52,NW,317,2.0,5.0,83,0.00,,,0.00,0.000000,,2013-01-09 04:53:00,